Time;durP1;ratioP1;P1;durP2;ratioP2;P2;SDS_P1;SDS_P2;PMS_P1;PMS_P2;Temp;Humidity;BMP_temperature;BMP_pressure;BME280_temperature;BME280_humidity;BME280_pressure;Samples;Min_cycle;Max_cycle;Signal;HPM_P1;HPM_P2
2022/04/29 00:02:31;;;;;;;13.40;5.47;;;11.20;99.90;;;11.27;75.54;102204.47;5227760;28;20055;-73
2022/04/29 00:05:04;;;;;;;10.55;5.20;;;11.10;99.90;;;11.23;75.77;102206.84;5227926;28;20080;-74
2022/04/29 00:07:37;;;;;;;10.57;5.43;;;11.10;99.90;;;11.20;75.97;102204.06;5227287;28;20131;-73
2022/04/29 00:10:12;;;;;;;12.05;5.82;;;11.10;99.90;;;11.17;76.16;102201.31;5228050;28;20049;-73
2022/04/29 00:12:47;;;;;;;11.25;5.45;;;11.00;99.90;;;11.11;76.32;102205.38;5227701;28;20052;-74
2022/04/29 00:15:21;;;;;;;;;;;11.00;99.90;;;11.08;76.44;102202.59;5228310;28;20645;-73
2022/04/29 00:17:53;;;;;;;11.40;5.28;;;11.00;99.90;;;11.03;76.83;102205.78;5227547;28;20012;-73
2022/04/29 00:20:25;;;;;;;13.07;5.90;;;10.90;99.90;;;10.99;76.77;102198.56;5227971;28;20056;-73
2022/04/29 00:22:57;;;;;;;15.73;6.60;;;10.80;99.90;;;10.96;76.96;102196.72;5227070;28;20136;-73
2022/04/29 00:25:29;;;;;;;13.85;6.85;;;10.80;99.90;;;10.94;77.15;102198.31;5227704;28;20049;-74
2022/04/29 00:28:03;;;;;;;14.70;6.53;;;10.80;99.90;;;10.95;77.39;102200.09;5227339;28;20136;-73
2022/04/29 00:30:37;;;;;;;13.65;6.75;;;10.80;99.90;;;10.93;77.41;102196.50;5227757;28;20056;-74
2022/04/29 00:33:09;;;;;;;15.55;6.10;;;10.80;99.90;;;10.94;77.54;102202.63;5223872;28;20405;-74
2022/04/29 00:35:41;;;;;;;14.38;6.45;;;10.80;99.90;;;10.91;77.50;102203.38;5227459;28;20132;-74
2022/04/29 00:38:15;;;;;;;11.75;5.95;;;10.80;99.90;;;10.90;77.63;102190.25;5227191;28;20132;-74
2022/04/29 00:40:47;;;;;;;14.05;6.47;;;10.80;99.90;;;10.87;77.65;102196.16;5222293;28;20056;-74
2022/04/29 00:43:19;;;;;;;15.57;6.68;;;10.70;99.90;;;10.86;77.79;102191.78;5224328;28;20140;-75
2022/04/29 00:45:53;;;;;;;12.43;6.30;;;10.70;99.90;;;10.87;77.69;102186.63;5218473;28;20045;-75
2022/04/29 00:48:25;;;;;;;12.65;5.45;;;10.70;99.90;;;10.89;77.51;102181.53;5215906;28;20053;-74
2022/04/29 00:50:57;;;;;;;12.02;5.43;;;10.70;99.90;;;10.94;77.02;102182.66;5226867;28;20045;-73
2022/04/29 00:53:31;;;;;;;9.43;4.97;;;10.80;99.90;;;10.95;76.84;102171.41;5226429;28;20049;-74
2022/04/29 00:56:04;;;;;;;15.43;5.80;;;10.80;99.90;;;10.96;76.88;102178.44;5227738;28;20486;-73
2022/04/29 00:58:41;;;;;;;10.60;4.47;;;10.80;99.90;;;10.94;76.40;102167.00;5227324;28;20416;-73
2022/04/29 01:01:16;;;;;;;13.30;6.30;;;10.80;99.90;;;10.92;76.27;102167.75;5227120;28;20079;-74
2022/04/29 01:03:50;;;;;;;12.73;5.53;;;10.80;99.90;;;10.87;76.20;102155.31;5226871;28;20065;-74
2022/04/29 01:06:22;;;;;;;13.23;6.22;;;10.70;99.90;;;10.83;76.18;102157.72;5227183;28;20056;-73
2022/04/29 01:08:54;;;;;;;21.27;8.20;;;10.70;99.90;;;10.82;76.07;102161.09;5227219;28;20049;-73
2022/04/29 01:11:27;;;;;;;23.13;9.95;;;10.70;99.90;;;10.79;75.70;102163.56;5227050;28;20071;-75
2022/04/29 01:13:59;;;;;;;23.02;9.98;;;10.70;99.90;;;10.76;75.71;102155.56;5226679;28;20402;-74
2022/04/29 01:16:33;;;;;;;21.83;9.65;;;10.60;99.90;;;10.70;75.75;102150.00;5227104;28;20045;-74
2022/04/29 01:19:05;;;;;;;21.55;9.98;;;10.60;99.90;;;10.68;75.83;102146.41;5225980;28;20052;-73
2022/04/29 01:21:37;;;;;;;19.20;8.85;;;10.50;99.90;;;10.64;75.83;102147.97;5226536;28;20059;-73
2022/04/29 01:24:10;;;;;;;17.50;8.55;;;10.50;99.90;;;10.60;76.14;102159.00;5226615;28;20422;-73
2022/04/29 01:26:42;;;;;;;16.20;7.80;;;10.50;99.90;;;10.56;76.30;102157.97;5226947;28;20562;-73
2022/04/29 01:29:16;;;;;;;14.23;6.95;;;10.40;99.90;;;10.52;76.31;102155.97;5226751;28;20564;-73
2022/04/29 01:31:50;;;;;;;13.02;6.45;;;10.40;99.90;;;10.48;76.41;102161.81;5226767;28;20054;-71
2022/04/29 01:34:22;;;;;;;12.95;6.00;;;10.40;99.90;;;10.44;76.51;102157.25;5226462;28;20071;-71
2022/04/29 01:36:54;;;;;;;13.95;6.32;;;10.40;99.90;;;10.40;76.86;102155.28;5226283;28;20051;-72
2022/04/29 01:39:27;;;;;;;13.80;7.00;;;10.30;99.90;;;10.36;76.97;102149.78;5226255;28;20055;-72
2022/04/29 01:41:59;;;;;;;16.77;7.03;;;10.30;99.90;;;10.35;76.76;102146.28;5226219;28;20052;-72
2022/04/29 01:44:31;;;;;;;15.27;6.85;;;10.20;99.90;;;10.32;76.91;102146.13;5226395;28;20055;-71
2022/04/29 01:47:04;;;;;;;12.57;6.53;;;10.20;99.90;;;10.30;76.98;102148.66;5225994;28;20107;-71
2022/04/29 01:49:36;;;;;;;16.00;7.35;;;10.20;99.90;;;10.28;76.98;102146.75;5226103;28;20049;-71
2022/04/29 01:52:09;;;;;;;14.00;7.07;;;10.20;99.90;;;10.26;77.12;102145.78;5226376;28;20482;-72
2022/04/29 01:54:42;;;;;;;13.88;6.80;;;10.10;99.90;;;10.24;76.97;102142.19;5226303;28;20048;-71
2022/04/29 01:57:14;;;;;;;15.85;7.43;;;10.10;99.90;;;10.22;77.38;102138.56;5226439;28;20052;-71
2022/04/29 01:59:47;;;;;;;15.48;6.95;;;10.10;99.90;;;10.19;77.53;102144.50;5226808;28;20296;-73
2022/04/29 02:02:21;;;;;;;15.27;7.72;;;10.10;99.90;;;10.18;77.72;102145.31;5226469;28;20508;-73
2022/04/29 02:04:53;;;;;;;16.00;6.55;;;10.00;99.90;;;10.19;77.83;102146.22;5226291;28;20144;-72
2022/04/29 02:07:25;;;;;;;16.00;6.03;;;10.10;99.90;;;10.18;77.83;102136.59;5375916;22;20417;-73
2022/04/29 02:09:58;;;;;;;15.80;6.63;;;10.00;99.90;;;10.17;78.12;102139.97;5185220;28;20486;-74
2022/04/29 02:12:30;;;;;;;16.33;7.05;;;10.10;99.90;;;10.15;78.26;102132.09;5184705;28;20054;-73
2022/04/29 02:15:02;;;;;;;13.43;6.45;;;10.00;99.90;;;10.13;78.50;102136.31;5185417;28;20050;-72
2022/04/29 02:17:34;;;;;;;13.93;6.38;;;10.00;99.90;;;10.11;78.86;102140.56;5185026;28;20056;-73
2022/04/29 02:20:08;;;;;;;15.05;6.95;;;10.00;99.90;;;10.07;78.86;102134.25;5185004;28;20057;-74
2022/04/29 02:22:40;;;;;;;12.68;6.32;;;10.00;99.90;;;10.03;79.02;102129.66;5185003;28;20046;-73
2022/04/29 02:25:14;;;;;;;13.77;6.68;;;9.90;99.90;;;10.01;79.11;102133.91;5185178;28;20045;-73
2022/04/29 02:27:46;;;;;;;15.23;6.00;;;9.90;99.90;;;10.00;79.18;102136.41;5184728;28;20505;-73
2022/04/29 02:30:18;;;;;;;14.50;6.07;;;9.90;99.90;;;9.98;79.30;102131.13;5184962;28;20410;-72
2022/04/29 02:32:50;;;;;;;15.15;6.75;;;9.90;99.90;;;9.97;79.50;102120.59;5184396;28;20046;-73
2022/04/29 02:35:22;;;;;;;11.95;5.85;;;9.90;99.90;;;9.98;79.57;102125.91;5185123;28;20575;-72
2022/04/29 02:37:54;;;;;;;12.27;6.72;;;9.90;99.90;;;9.98;79.54;102115.50;5185157;28;20049;-73
2022/04/29 02:40:28;;;;;;;14.43;6.28;;;9.90;99.90;;;10.02;79.66;102108.75;5184901;28;20092;-73
2022/04/29 02:43:00;;;;;;;14.88;6.28;;;9.90;99.90;;;10.09;79.22;102107.38;5183814;28;20558;-73
2022/04/29 02:45:32;;;;;;;12.68;5.55;;;10.00;99.90;;;10.14;78.74;102103.34;5184202;28;20056;-73
2022/04/29 02:48:05;;;;;;;14.50;6.97;;;10.00;99.90;;;10.06;78.27;102106.41;5183894;28;20088;-72
2022/04/29 02:50:37;;;;;;;11.75;6.03;;;10.00;99.90;;;10.04;78.60;102105.44;5184266;28;20406;-73
2022/04/29 02:53:09;;;;;;;13.60;6.35;;;10.00;99.90;;;10.06;78.43;102109.00;5184373;28;20042;-73
2022/04/29 02:55:42;;;;;;;14.20;6.38;;;10.00;99.90;;;10.07;78.31;102108.19;5184120;28;20049;-74
2022/04/29 02:58:14;;;;;;;15.95;6.35;;;10.00;99.90;;;10.08;78.51;102103.88;5183952;28;20467;-73
2022/04/29 03:00:46;;;;;;;11.70;6.03;;;10.00;99.90;;;10.05;78.44;102104.63;5184069;28;20060;-73
2022/04/29 03:03:18;;;;;;;14.63;6.88;;;10.00;99.90;;;10.02;78.61;102104.44;5183640;28;20068;-72
2022/04/29 03:05:50;;;;;;;15.68;6.68;;;10.00;99.90;;;9.99;78.83;102108.56;5184093;28;20049;-73
2022/04/29 03:08:23;;;;;;;13.38;6.75;;;9.90;99.90;;;9.96;78.88;102119.69;5183674;28;20053;-73
2022/04/29 03:10:56;;;;;;;12.63;6.30;;;9.90;99.90;;;9.94;79.07;102113.50;5184195;28;20111;-73
2022/04/29 03:13:28;;;;;;;11.48;6.45;;;9.90;99.90;;;9.91;79.38;102110.75;5183934;28;20057;-73
2022/04/29 03:16:00;;;;;;;11.00;5.63;;;9.90;99.90;;;9.88;79.75;102115.75;5183741;28;20049;-72
2022/04/29 03:18:32;;;;;;;14.27;6.55;;;9.80;99.90;;;9.84;79.94;102103.34;5183790;28;20050;-74
2022/04/29 03:21:04;;;;;;;13.45;6.65;;;9.80;99.90;;;9.81;80.34;102118.81;5183527;28;20056;-73
2022/04/29 03:23:36;;;;;;;14.23;6.57;;;9.70;99.90;;;9.77;80.48;102106.41;5183747;28;20054;-74
2022/04/29 03:26:09;;;;;;;13.85;6.65;;;9.70;99.90;;;9.75;80.99;102108.94;5183831;28;20045;-73
2022/04/29 03:28:42;;;;;;;17.27;6.85;;;9.70;99.90;;;9.76;80.75;102109.81;5183790;28;20134;-72
2022/04/29 03:31:14;;;;;;;14.73;6.63;;;9.70;99.90;;;9.75;80.83;102113.25;5183641;28;20052;-73
2022/04/29 03:33:45;;;;;;;13.25;6.30;;;9.70;99.90;;;9.71;80.99;102101.72;5183085;28;20260;-74
2022/04/29 03:36:18;;;;;;;11.90;6.43;;;9.60;99.90;;;9.69;81.38;102105.06;5183322;28;20046;-72
2022/04/29 03:38:49;;;;;;;12.23;6.13;;;9.60;99.90;;;9.66;81.38;102102.31;5183791;28;20050;-74
2022/04/29 03:41:23;;;;;;;15.43;6.97;;;9.60;99.90;;;9.65;81.77;102114.41;5184116;28;20049;-74
2022/04/29 03:43:55;;;;;;;14.20;6.22;;;9.60;99.90;;;9.64;81.94;102103.88;5186756;28;20046;-74
2022/04/29 03:46:27;;;;;;;13.45;6.75;;;9.60;99.90;;;9.62;81.97;102106.41;5187318;28;20045;-73
2022/04/29 03:51:48;;;;;;;12.90;6.07;;;9.60;99.90;;;9.60;82.64;102101.94;5187100;28;20404;-74
2022/04/29 03:54:20;;;;;;;14.48;6.90;;;9.50;99.90;;;9.58;82.65;102099.22;5186552;28;20052;-73
2022/04/29 03:56:54;;;;;;;13.35;6.72;;;9.50;99.90;;;9.59;82.87;102100.13;5187140;28;20552;-74
2022/04/29 03:59:26;;;;;;;14.70;6.63;;;9.50;99.90;;;9.59;82.89;102094.94;5186933;28;20060;-72
2022/04/29 04:01:58;;;;;;;17.35;6.75;;;9.50;99.90;;;9.59;82.96;102097.53;5186815;28;20050;-74
2022/04/29 04:04:30;;;;;;;15.48;7.30;;;9.50;99.90;;;9.60;82.92;102101.94;5187120;28;20049;-73
2022/04/29 04:07:02;;;;;;;15.88;6.80;;;9.50;99.90;;;9.61;82.58;102093.31;5186428;28;20050;-73
2022/04/29 04:09:34;;;;;;;17.85;6.88;;;9.50;99.90;;;9.63;82.50;102091.69;5187064;28;20053;-71
2022/04/29 04:12:10;;;;;;;17.08;7.30;;;9.50;99.90;;;9.62;82.46;102097.69;5186362;28;20155;-73
2022/04/29 04:14:42;;;;;;;16.65;7.35;;;9.50;99.90;;;9.63;82.14;102096.91;5186808;28;20045;-73
2022/04/29 04:17:14;;;;;;;15.63;6.97;;;9.60;99.90;;;9.63;82.38;102096.91;5186177;28;20042;-73
2022/04/29 04:19:46;;;;;;;16.77;6.97;;;9.60;99.90;;;9.65;82.05;102103.06;5186708;28;20056;-73
2022/04/29 04:22:18;;;;;;;16.10;7.60;;;9.60;99.90;;;9.70;81.73;102106.84;5186043;28;20060;-73
2022/04/29 04:24:50;;;;;;;17.00;8.13;;;9.60;99.90;;;9.69;81.64;102100.75;5186655;28;20126;-72
2022/04/29 04:27:24;;;;;;;14.30;6.75;;;9.60;99.90;;;9.70;81.36;102109.47;5186654;28;20402;-73
2022/04/29 04:29:56;;;;;;;13.77;6.45;;;9.60;99.90;;;9.72;81.84;102113.06;5186350;28;20112;-73
2022/04/29 04:32:29;;;;;;;18.15;7.50;;;9.60;99.90;;;9.73;82.01;102120.06;5185923;28;20054;-73
2022/04/29 04:35:01;;;;;;;16.15;6.75;;;9.60;99.90;;;9.72;82.24;102113.97;5186557;28;20050;-73
2022/04/29 04:37:33;;;;;;;14.70;7.05;;;9.70;99.90;;;9.74;82.08;102111.44;5186315;28;20091;-73
2022/04/29 04:40:06;;;;;;;13.75;6.78;;;9.70;99.90;;;9.72;82.16;102113.97;5186002;28;20506;-73
2022/04/29 04:42:45;;;;;;;15.52;6.65;;;9.70;99.90;;;9.76;81.66;102110.72;5185705;28;20060;-73
2022/04/29 04:45:17;;;;;;;16.75;7.05;;;9.70;99.90;;;9.78;81.82;102123.84;5186032;28;20042;-73
2022/04/29 04:47:49;;;;;;;16.40;7.22;;;9.70;99.90;;;9.81;81.89;102128.34;5185877;28;20050;-74
2022/04/29 04:50:21;;;;;;;12.43;6.25;;;9.70;99.90;;;9.81;81.62;102121.41;5186139;28;20402;-73
2022/04/29 04:52:53;;;;;;;14.57;7.28;;;9.70;99.90;;;9.79;82.02;102123.03;5185268;28;20052;-73
2022/04/29 04:55:25;;;;;;;14.00;6.70;;;9.70;99.90;;;9.81;81.97;102115.31;5185796;28;20140;-73
2022/04/29 04:57:59;;;;;;;15.18;7.38;;;9.70;99.90;;;9.83;82.13;102121.50;5186011;28;20054;-73
2022/04/29 05:00:31;;;;;;;15.73;7.68;;;9.70;99.90;;;9.87;81.92;102124.38;5185935;28;20049;-73
2022/04/29 05:03:05;;;;;;;19.10;7.85;;;9.80;99.90;;;9.94;81.51;102128.25;5185168;28;20050;-72
2022/04/29 05:05:37;;;;;;;15.80;7.28;;;9.80;99.90;;;9.98;81.64;102128.53;5185546;28;20050;-72
2022/04/29 05:08:09;;;;;;;15.05;6.78;;;9.90;99.90;;;10.02;81.63;102135.69;5185279;28;20046;-73
2022/04/29 05:10:40;;;;;;;16.60;7.45;;;9.90;99.90;;;10.06;81.25;102134.19;5185630;28;20071;-73
2022/04/29 05:13:14;;;;;;;18.30;7.55;;;9.90;99.90;;;10.13;81.13;102135.44;5185521;28;20046;-73
2022/04/29 05:15:46;;;;;;;14.48;6.82;;;10.00;99.90;;;10.18;81.43;102128.78;5185358;28;20045;-73
2022/04/29 05:18:18;;;;;;;14.25;7.82;;;10.00;99.90;;;10.22;81.16;102125.53;5185014;28;20046;-73
2022/04/29 05:20:50;;;;;;;16.38;6.93;;;10.10;99.90;;;10.28;80.56;102121.59;5185766;28;20137;-73
2022/04/29 05:23:22;;;;;;;14.60;7.50;;;10.20;99.90;;;10.34;80.15;102123.66;5185135;28;20052;-72
2022/04/29 05:25:54;;;;;;;14.80;7.05;;;10.20;99.90;;;10.41;79.90;102124.91;5185112;28;20050;-72
2022/04/29 05:28:27;;;;;;;17.27;7.50;;;10.30;99.90;;;10.49;79.73;102121.91;5184951;28;20042;-73
2022/04/29 05:31:00;;;;;;;21.13;9.57;;;10.30;99.90;;;10.58;79.58;102124.13;5185257;28;20049;-73
2022/04/29 05:33:33;;;;;;;21.52;9.55;;;10.40;99.90;;;10.70;79.40;102126.53;5184846;28;20054;-73
2022/04/29 05:36:07;;;;;;;28.38;18.83;;;10.50;99.90;;;10.82;79.10;102124.56;5185266;28;20137;-72
2022/04/29 05:44:20;;;;;;;17.27;8.10;;;10.80;99.90;;;11.07;78.49;102122.50;5185313;28;20054;-73
2022/04/29 05:46:52;;;;;;;16.42;7.47;;;10.90;99.90;;;11.16;78.27;102121.22;5184521;28;20052;-74
2022/04/29 05:49:24;;;;;;;21.60;8.95;;;11.00;99.90;;;11.25;78.14;102117.34;5184832;28;20407;-73
2022/04/29 05:51:56;;;;;;;17.30;8.15;;;11.10;99.90;;;11.37;77.63;102114.50;5184923;28;20406;-72
2022/04/29 05:54:28;;;;;;;16.90;7.70;;;11.20;99.90;;;11.59;76.62;102117.41;5184648;28;20137;-73
2022/04/29 05:57:01;;;;;;;14.20;6.53;;;11.40;99.90;;;11.79;75.98;102115.81;5184636;28;20395;-77
2022/04/29 05:59:35;;;;;;;18.80;8.90;;;11.50;99.90;;;11.91;75.38;102112.94;5184413;28;20056;-71
2022/04/29 06:02:08;;;;;;;16.67;8.13;;;11.70;99.90;;;12.00;74.35;102121.28;5184092;28;20056;-71
2022/04/29 06:04:40;;;;;;;18.33;8.80;;;11.80;99.90;;;11.97;73.58;102115.88;5184240;28;20050;-71
2022/04/29 06:07:12;;;;;;;15.35;7.43;;;11.80;99.90;;;12.00;73.01;102116.06;5184157;28;20053;-72
2022/04/29 06:09:44;;;;;;;14.50;7.30;;;11.80;99.90;;;12.00;72.87;102108.22;5184669;28;20052;-72
2022/04/29 06:12:16;;;;;;;17.30;7.63;;;11.80;99.90;;;11.96;72.69;102111.47;5184326;28;20053;-70
2022/04/29 06:14:49;;;;;;;16.88;7.75;;;11.90;99.90;;;11.99;72.57;102122.06;5184376;28;20140;-72
2022/04/29 06:17:23;;;;;;;19.55;8.45;;;11.80;99.90;;;12.02;72.53;102121.34;5184308;28;20092;-74
2022/04/29 06:19:55;;;;;;;22.40;8.15;;;11.80;99.90;;;12.03;72.95;102126.63;5184326;28;20081;-72
2022/04/29 06:22:27;;;;;;;16.73;8.05;;;11.80;99.90;;;12.06;73.07;102129.44;5184409;28;20049;-71
2022/04/29 06:24:59;;;;;;;19.73;8.25;;;11.90;99.90;;;12.09;72.97;102128.66;5184788;28;20049;-71
2022/04/29 06:27:31;;;;;;;17.27;7.85;;;11.90;99.90;;;12.14;73.45;102127.19;5184332;28;20050;-71
2022/04/29 06:30:08;;;;;;;19.27;8.40;;;11.90;99.90;;;12.18;73.75;102129.09;5184689;28;20111;-73
2022/04/29 06:32:40;;;;;;;17.63;8.13;;;12.00;99.90;;;12.22;74.03;102131.06;5184361;28;20053;-71
2022/04/29 06:35:12;;;;;;;19.60;8.50;;;11.90;99.90;;;12.22;73.78;102137.19;5184757;28;20046;-71
2022/04/29 06:37:44;;;;;;;19.55;8.73;;;12.00;99.90;;;12.22;73.58;102134.56;5184575;28;20057;-71
2022/04/29 06:40:18;;;;;;;20.42;8.98;;;12.00;99.90;;;12.23;73.38;102130.25;5184748;28;20092;-73
2022/04/29 06:42:50;;;;;;;20.10;8.95;;;12.00;99.90;;;12.29;73.28;102132.25;5184403;28;20081;-72
2022/04/29 06:45:23;;;;;;;19.63;8.85;;;12.00;99.90;;;12.40;72.99;102133.69;5184275;28;20581;-72
2022/04/29 06:47:55;;;;;;;17.60;8.45;;;12.10;99.90;;;12.54;72.90;102140.47;5184392;28;20048;-71
2022/04/29 06:50:27;;;;;;;15.63;7.85;;;12.20;99.90;;;12.70;72.29;102134.25;5184282;28;20093;-72
2022/04/29 06:52:59;;;;;;;17.88;8.15;;;12.30;99.90;;;12.83;71.83;102143.56;5183878;28;20176;-73
2022/04/29 06:55:32;;;;;;;18.95;8.25;;;12.50;99.90;;;12.90;70.98;102135.19;5184149;28;20050;-72
2022/04/29 06:58:04;;;;;;;17.00;7.82;;;12.50;99.90;;;12.87;70.55;102138.56;5184019;28;20050;-71
2022/04/29 07:00:39;;;;;;;18.35;7.82;;;12.60;99.90;;;12.85;69.50;102139.31;5184657;28;20045;-72
2022/04/29 07:03:12;;;;;;;15.20;7.80;;;12.60;99.90;;;12.82;69.71;102141.78;5183849;28;20061;-71
2022/04/29 07:05:44;;;;;;;18.55;8.13;;;12.60;99.90;;;12.83;69.08;102140.94;5184572;28;20081;-73
2022/04/29 07:08:16;;;;;;;17.08;7.85;;;12.60;99.90;;;12.89;68.84;102138.63;5183780;28;20054;-71
2022/04/29 07:10:48;;;;;;;19.58;8.35;;;12.70;99.90;;;12.98;68.65;102139.06;5184209;28;20054;-70
2022/04/29 07:13:20;;;;;;;18.33;8.02;;;12.70;99.90;;;13.06;67.75;102147.28;5183784;28;20483;-72
2022/04/29 07:15:53;;;;;;;16.25;7.18;;;12.80;99.90;;;13.06;67.07;102148.16;5184472;28;20075;-74
2022/04/29 07:18:25;;;;;;;19.85;7.82;;;12.80;99.90;;;13.20;66.71;102156.66;5188665;28;20475;-71
2022/04/29 07:20:57;;;;;;;19.80;7.68;;;12.90;99.90;;;13.35;66.39;102152.13;5188038;28;20361;-72
2022/04/29 07:23:29;;;;;;;18.58;8.68;;;13.00;99.90;;;13.49;66.74;102150.13;5187709;28;20054;-73
2022/04/29 07:26:01;;;;;;;18.77;8.07;;;13.10;99.90;;;13.63;66.58;102164.75;5188029;28;20053;-69
2022/04/29 07:28:33;;;;;;;16.80;7.93;;;13.20;99.90;;;13.69;66.78;102159.78;5187646;28;20052;-69
2022/04/29 07:31:07;;;;;;;15.93;7.40;;;13.30;99.90;;;13.70;67.74;102156.31;5188798;28;20054;-71
2022/04/29 07:33:39;;;;;;;16.55;7.63;;;13.40;99.90;;;13.71;68.16;102151.97;5189160;28;20534;-71
2022/04/29 07:41:50;;;;;;;17.05;7.70;;;13.40;99.90;;;13.88;69.75;102145.72;5187193;28;20088;-70
2022/04/29 07:44:22;;;;;;;17.25;7.53;;;13.50;99.90;;;14.15;69.25;102145.09;5187312;28;20056;-68
2022/04/29 07:46:55;;;;;;;14.35;7.55;;;13.70;99.90;;;14.35;68.15;102145.09;5188186;28;20046;-67
2022/04/29 07:49:27;;;;;;;15.82;7.97;;;13.90;99.90;;;14.52;67.73;102142.28;5188355;28;20466;-67
2022/04/29 07:51:59;;;;;;;14.90;7.25;;;14.00;99.90;;;14.79;67.19;102145.09;5187625;28;20050;-68
2022/04/29 07:54:31;;;;;;;16.60;6.78;;;14.20;99.90;;;15.07;65.46;102133.94;5178375;28;20046;-69
2022/04/29 07:57:03;;;;;;;16.15;7.70;;;14.50;99.90;;;15.37;63.88;102135.06;5174467;28;20482;-68
2022/04/29 07:59:36;;;;;;;15.38;7.65;;;14.80;99.90;;;15.63;61.96;102145.63;5185349;28;20046;-68
2022/04/29 08:02:09;;;;;;;14.23;7.20;;;15.10;99.50;;;15.79;60.74;102140.09;5175864;28;20482;-67
2022/04/29 08:04:41;;;;;;;17.38;7.00;;;15.20;98.70;;;15.91;59.54;102139.59;5187842;28;20061;-68
2022/04/29 08:07:13;;;;;;;15.70;7.93;;;15.40;97.80;;;16.02;58.99;102139.13;5210763;22;20056;-77
2022/04/29 08:09:45;;;;;;;12.73;7.65;;;15.50;97.30;;;16.02;58.65;102139.13;5186596;28;20046;-77
2022/04/29 08:12:16;;;;;;;16.60;7.57;;;15.50;97.00;;;16.00;58.47;102138.19;5189625;28;20524;-80
2022/04/29 08:14:49;;;;;;;18.60;8.40;;;15.50;96.70;;;16.02;58.99;102140.88;5190324;28;20049;-78
2022/04/29 08:17:24;;;;;;;16.35;7.97;;;15.50;97.00;;;16.03;59.13;102137.38;5174237;28;20052;-78
2022/04/29 08:19:56;;;;;;;15.32;8.30;;;15.40;97.20;;;16.08;59.38;102133.19;5182425;28;20318;-78
2022/04/29 08:22:28;;;;;;;18.15;7.70;;;15.50;97.50;;;16.23;59.52;102128.41;5186531;28;20104;-78
2022/04/29 08:25:00;;;;;;;13.93;7.38;;;15.50;97.80;;;16.72;59.34;102123.88;5187206;28;20401;-76
2022/04/29 08:27:32;;;;;;;18.08;8.25;;;15.70;98.20;;;17.09;57.52;102126.75;5187371;28;20092;-76
2022/04/29 08:30:07;;;;;;;15.23;7.72;;;15.90;97.50;;;17.47;56.37;102126.03;5187608;28;20066;-77
2022/04/29 08:32:42;;;;;;;18.55;8.77;;;16.20;97.10;;;17.93;55.57;102132.56;5187506;28;20554;-76
2022/04/29 08:35:15;;;;;;;15.90;7.13;;;16.50;96.80;;;18.44;53.60;102131.22;5187568;28;20439;-77
2022/04/29 08:37:47;;;;;;;15.23;8.23;;;16.80;96.00;;;18.51;52.26;102134.91;5188244;28;20302;-77
2022/04/29 08:40:19;;;;;;;17.17;8.48;;;17.00;94.50;;;18.48;52.37;102132.22;5187957;28;20050;-78
2022/04/29 08:42:53;;;;;;;13.80;8.18;;;17.10;94.20;;;18.38;52.23;102120.53;5186400;28;20054;-78
2022/04/29 08:45:25;;;;;;;13.70;7.95;;;17.10;93.50;;;18.26;52.31;102129.94;5187954;28;20096;-78
2022/04/29 08:47:59;;;;;;;17.08;7.82;;;17.10;93.20;;;18.20;52.55;102129.78;5187191;28;20397;-79
2022/04/29 08:50:32;;;;;;;15.48;7.88;;;17.20;93.20;;;18.15;52.33;102129.66;5187453;28;20100;-78
2022/04/29 08:53:04;;;;;;;15.07;7.50;;;17.20;92.80;;;18.08;52.31;102136.53;5187354;28;20061;-77
2022/04/29 08:58:39;;;;;;;15.25;8.45;;;16.90;91.90;;;17.39;53.54;102138.13;5186993;28;20061;-77
2022/04/29 09:01:16;;;;;;;11.93;6.97;;;16.70;92.30;;;17.25;54.28;102137.75;5186831;28;20068;-77
2022/04/29 09:03:50;;;;;;;16.08;7.60;;;16.60;92.70;;;17.24;53.96;102128.06;5186686;28;20065;-77
2022/04/29 09:06:22;;;;;;;18.48;7.43;;;16.50;92.70;;;17.37;53.92;102132.81;5186488;28;20140;-76
2022/04/29 09:08:54;;;;;;;16.38;8.18;;;16.50;92.80;;;17.54;53.35;102131.56;5186266;28;20042;-77
2022/04/29 09:11:27;;;;;;;13.27;6.68;;;16.60;92.80;;;17.76;53.58;102126.88;5186649;28;20056;-76
2022/04/29 09:13:59;;;;;;;16.63;8.20;;;16.70;93.10;;;18.01;53.38;102129.31;5186604;28;20057;-77
2022/04/29 09:16:45;;;;;;;14.77;6.57;;;16.90;93.40;;;18.29;53.03;102124.72;5186136;28;20050;-77
2022/04/29 09:19:35;;;;;;;14.93;7.43;;;17.10;93.00;;;18.62;52.56;102125.50;5186571;28;20050;-77
2022/04/29 09:22:10;;;;;;;17.90;7.32;;;17.40;92.90;;;18.83;51.56;102124.22;5186077;28;20447;-77
2022/04/29 09:24:42;;;;;;;15.88;7.13;;;17.60;92.00;;;18.83;50.15;102118.94;5186968;28;20412;-78
2022/04/29 09:27:14;;;;;;;12.48;6.85;;;17.80;90.40;;;18.82;50.34;102123.34;5186302;28;20049;-78
2022/04/29 09:29:45;;;;;;;15.70;7.30;;;17.80;90.20;;;18.84;50.00;102118.06;5187051;28;20069;-77
2022/04/29 09:32:18;;;;;;;11.55;6.95;;;17.90;89.20;;;18.83;50.13;102118.94;5186267;28;20057;-77
2022/04/29 09:34:54;;;;;;;17.10;7.78;;;18.00;88.70;;;18.91;49.90;102112.97;5186811;28;20052;-77
2022/04/29 09:37:28;;;;;;;16.02;7.63;;;18.00;88.30;;;19.02;48.93;102126.41;5186086;28;20050;-77
2022/04/29 09:40:01;;;;;;;;;;;18.10;86.60;;;19.04;48.48;102119.41;5186469;28;20042;-77
2022/04/29 09:42:40;;;;;;;13.50;6.75;;;18.20;85.20;;;18.83;48.27;102116.28;5185918;28;19928;-77
2022/04/29 09:45:14;;;;;;;14.63;7.82;;;18.00;84.00;;;18.66;49.12;102116.81;5186101;28;20046;-76
2022/04/29 09:47:46;;;;;;;14.82;7.25;;;17.90;84.30;;;18.49;49.58;102107.59;5186357;28;20060;-77
2022/04/29 09:50:20;;;;;;;14.15;6.75;;;17.80;85.10;;;18.44;50.30;102114.50;5186047;28;20404;-77
2022/04/29 09:52:53;;;;;;;15.25;6.75;;;17.70;86.00;;;18.46;50.76;102117.19;5185657;28;20397;-77
2022/04/29 09:55:24;;;;;;;14.48;6.95;;;17.70;87.20;;;18.49;50.74;102118.16;5185606;28;20521;-75
2022/04/29 09:57:59;;;;;;;11.40;6.68;;;17.70;87.30;;;18.55;49.67;102106.84;5185916;28;20057;-76
2022/04/29 10:00:31;;;;;;;14.95;7.43;;;17.70;85.60;;;18.49;49.11;102111.97;5185894;28;20050;-77
2022/04/29 10:03:03;;;;;;;14.85;7.65;;;17.70;84.40;;;18.49;49.19;102118.16;5185794;28;20136;-76
2022/04/29 10:05:42;;;;;;;15.15;6.97;;;17.70;84.30;;;18.73;49.11;102109.03;5186297;28;20077;-79
2022/04/29 10:08:14;;;;;;;11.77;5.70;;;17.80;84.40;;;18.97;48.79;102101.63;5187242;28;20054;-78
2022/04/29 10:10:47;;;;;;;15.32;7.18;;;18.00;84.40;;;19.39;47.83;102100.72;5188818;28;20052;-78
2022/04/29 10:13:24;;;;;;;13.88;7.43;;;18.30;83.60;;;19.59;46.95;102082.63;5188492;28;20068;-79
2022/04/29 10:15:56;;;;;;;16.83;6.10;;;18.50;81.50;;;19.84;47.27;102090.13;5188266;28;20467;-78
2022/04/29 10:21:33;;;;;;;13.48;6.13;;;18.90;80.40;;;20.26;45.95;102089.91;5188476;28;20093;-78
2022/04/29 10:24:05;;;;;;;10.93;5.15;;;19.20;79.80;;;20.34;45.51;102092.69;5189075;28;20472;-78
2022/04/29 10:26:37;;;;;;;15.15;7.57;;;19.30;78.50;;;20.40;45.45;102097.19;5187331;28;20136;-79
2022/04/29 10:29:10;;;;;;;16.48;6.30;;;19.50;77.70;;;20.65;44.72;102093.16;5188061;28;20056;-78
2022/04/29 10:31:43;;;;;;;14.02;6.63;;;19.60;76.60;;;20.76;44.30;102087.16;5187426;28;20404;-76
2022/04/29 10:34:29;;;;;;;14.05;6.15;;;19.80;75.60;;;21.04;44.06;102079.53;5187753;28;20054;-79
2022/04/29 10:37:10;;;;;;;15.63;6.68;;;20.00;75.40;;;21.27;43.06;102083.34;5191650;28;20111;-79
2022/04/29 10:40:09;;;;;;;8.10;4.65;;;20.20;73.70;;;21.46;42.72;102070.34;5192672;28;20415;-78
2022/04/29 10:43:08;;;;;;;12.73;6.43;;;20.40;72.70;;;21.54;42.24;102080.13;5187240;28;20050;-77
2022/04/29 10:46:23;;;;;;;13.23;6.68;;;20.60;71.00;;;21.50;42.03;102077.44;5204254;28;20516;-76
2022/04/29 10:48:55;;;;;;;12.43;6.13;;;20.60;70.00;;;21.22;42.54;102079.75;5206140;28;20534;-78
2022/04/29 10:51:49;;;;;;;10.95;5.53;;;20.50;70.30;;;21.02;43.00;102079.53;5200912;28;20057;-78
2022/04/29 10:54:48;;;;;;;12.07;5.70;;;20.40;70.40;;;20.97;43.51;102070.63;5191006;28;20046;-78
2022/04/29 10:57:38;;;;;;;13.27;6.25;;;20.30;71.00;;;20.94;43.92;102077.66;5191599;28;20143;-77